sensor_id;sensor_type;location;lat;lon;timestamp;temperature;humidity
1259;DHT22;619;51.472;6.628;2023-02-18T15:32:26;10.90;99.90
1259;DHT22;619;51.472;6.628;2023-02-18T15:34:56;11.50;99.90
1259;DHT22;619;51.472;6.628;2023-02-18T15:37:31;12.00;99.90
1259;DHT22;619;51.472;6.628;2023-02-18T15:39:59;12.40;99.90
1259;DHT22;619;51.472;6.628;2023-02-18T15:42:30;12.80;99.90
1259;DHT22;619;51.472;6.628;2023-02-18T15:45:04;13.10;99.90
1259;DHT22;619;51.472;6.628;2023-02-18T15:47:34;13.40;99.90
1259;DHT22;619;51.472;6.628;2023-02-18T15:50:24;13.70;99.90
1259;DHT22;619;51.472;6.628;2023-02-18T15:52:55;13.90;99.90
1259;DHT22;619;51.472;6.628;2023-02-18T15:57:54;14.30;99.90
1259;DHT22;619;51.472;6.628;2023-02-18T16:03:03;14.60;99.90
1259;DHT22;619;51.472;6.628;2023-02-18T16:05:36;14.70;99.90
1259;DHT22;619;51.472;6.628;2023-02-18T16:08:13;14.80;99.90
1259;DHT22;619;51.472;6.628;2023-02-18T16:13:12;15.00;99.90
1259;DHT22;619;51.472;6.628;2023-02-18T16:15:43;15.00;99.90
1259;DHT22;619;51.472;6.628;2023-02-18T16:18:38;15.10;99.90
1259;DHT22;619;51.472;6.628;2023-02-18T16:26:21;15.30;99.90
1259;DHT22;619;51.472;6.628;2023-02-18T16:28:51;15.40;99.90
1259;DHT22;619;51.472;6.628;2023-02-18T16:31:17;15.40;99.90
1259;DHT22;619;51.472;6.628;2023-02-18T16:33:47;15.40;99.90
1259;DHT22;619;51.472;6.628;2023-02-18T16:36:18;15.40;99.90
1259;DHT22;619;51.472;6.628;2023-02-18T16:38:44;15.40;99.90
1259;DHT22;619;51.472;6.628;2023-02-18T16:41:12;15.50;99.90
1259;DHT22;619;51.472;6.628;2023-02-18T16:43:41;15.50;99.90
1259;DHT22;619;51.472;6.628;2023-02-18T16:46:11;15.50;99.90
1259;DHT22;619;51.472;6.628;2023-02-18T16:48:43;15.50;99.90
1259;DHT22;619;51.472;6.628;2023-02-18T16:51:25;15.50;99.90
1259;DHT22;619;51.472;6.628;2023-02-18T16:53:53;15.60;99.90
1259;DHT22;619;51.472;6.628;2023-02-18T16:56:24;15.60;99.90
1259;DHT22;619;51.472;6.628;2023-02-18T16:58:53;15.60;99.90
1259;DHT22;619;51.472;6.628;2023-02-18T17:01:26;15.60;99.90
1259;DHT22;619;51.472;6.628;2023-02-18T17:03:53;15.60;99.90
1259;DHT22;619;51.472;6.628;2023-02-18T17:06:21;15.60;99.90
1259;DHT22;619;51.472;6.628;2023-02-18T17:08:51;15.70;99.90
1259;DHT22;619;51.472;6.628;2023-02-18T17:13:46;15.80;99.90
1259;DHT22;619;51.472;6.628;2023-02-18T17:16:13;15.80;99.90
1259;DHT22;619;51.472;6.628;2023-02-18T17:18:41;15.80;99.90
1259;DHT22;619;51.472;6.628;2023-02-18T17:21:19;15.80;99.90
1259;DHT22;619;51.472;6.628;2023-02-18T17:23:48;15.80;99.90
1259;DHT22;619;51.472;6.628;2023-02-18T17:26:24;15.80;99.90
1259;DHT22;619;51.472;6.628;2023-02-18T17:28:54;15.70;99.90
1259;DHT22;619;51.472;6.628;2023-02-18T17:31:24;15.70;99.90
1259;DHT22;619;51.472;6.628;2023-02-18T17:33:52;15.70;99.90
1259;DHT22;619;51.472;6.628;2023-02-18T17:36:18;15.70;99.90
1259;DHT22;619;51.472;6.628;2023-02-18T17:38:46;15.70;99.90
1259;DHT22;619;51.472;6.628;2023-02-18T17:41:12;15.80;99.90
1259;DHT22;619;51.472;6.628;2023-02-18T17:43:38;15.70;99.90
1259;DHT22;619;51.472;6.628;2023-02-18T17:46:04;15.80;99.90
1259;DHT22;619;51.472;6.628;2023-02-18T17:48:34;15.80;99.90
1259;DHT22;619;51.472;6.628;2023-02-18T17:51:00;15.80;99.90
1259;DHT22;619;51.472;6.628;2023-02-18T17:53:29;15.80;99.90
1259;DHT22;619;51.472;6.628;2023-02-18T17:55:57;15.80;99.90
1259;DHT22;619;51.472;6.628;2023-02-18T17:58:25;15.80;99.90
1259;DHT22;619;51.472;6.628;2023-02-18T18:00:55;15.80;99.90
1259;DHT22;619;51.472;6.628;2023-02-18T18:03:23;15.80;99.90
1259;DHT22;619;51.472;6.628;2023-02-18T18:05:50;15.80;99.90
1259;DHT22;619;51.472;6.628;2023-02-18T18:08:19;15.80;99.90
1259;DHT22;619;51.472;6.628;2023-02-18T18:10:51;15.80;99.90
1259;DHT22;619;51.472;6.628;2023-02-18T18:13:37;15.80;99.90
1259;DHT22;619;51.472;6.628;2023-02-18T18:16:05;15.80;99.90
1259;DHT22;619;51.472;6.628;2023-02-18T18:18:33;15.80;99.90
1259;DHT22;619;51.472;6.628;2023-02-18T18:21:01;15.80;99.90
1259;DHT22;619;51.472;6.628;2023-02-18T18:23:28;15.90;99.90
1259;DHT22;619;51.472;6.628;2023-02-18T18:25:56;15.90;99.90
1259;DHT22;619;51.472;6.628;2023-02-18T18:28:23;15.90;99.90
1259;DHT22;619;51.472;6.628;2023-02-18T18:30:53;15.90;99.90
1259;DHT22;619;51.472;6.628;2023-02-18T18:33:25;15.80;99.90
1259;DHT22;619;51.472;6.628;2023-02-18T18:35:57;15.90;99.90
1259;DHT22;619;51.472;6.628;2023-02-18T18:38:26;15.90;99.90
1259;DHT22;619;51.472;6.628;2023-02-18T18:40:53;15.80;99.90
1259;DHT22;619;51.472;6.628;2023-02-18T18:43:21;15.80;99.90
1259;DHT22;619;51.472;6.628;2023-02-18T18:45:48;15.80;99.90
1259;DHT22;619;51.472;6.628;2023-02-18T18:48:14;15.80;99.90
1259;DHT22;619;51.472;6.628;2023-02-18T18:50:40;15.90;99.90
1259;DHT22;619;51.472;6.628;2023-02-18T18:55:44;15.80;99.90
1259;DHT22;619;51.472;6.628;2023-02-18T18:58:10;15.80;99.90
1259;DHT22;619;51.472;6.628;2023-02-18T19:00:38;15.80;99.90
1259;DHT22;619;51.472;6.628;2023-02-18T19:03:05;15.70;99.90
1259;DHT22;619;51.472;6.628;2023-02-18T19:05:36;15.70;99.90
1259;DHT22;619;51.472;6.628;2023-02-18T19:08:03;15.70;99.90
1259;DHT22;619;51.472;6.628;2023-02-18T19:10:32;15.70;99.90
1259;DHT22;619;51.472;6.628;2023-02-18T19:15:47;15.70;99.90
1259;DHT22;619;51.472;6.628;2023-02-18T19:18:19;15.70;99.90
1259;DHT22;619;51.472;6.628;2023-02-18T19:20:45;15.70;99.90
1259;DHT22;619;51.472;6.628;2023-02-18T19:23:14;15.60;99.90
1259;DHT22;619;51.472;6.628;2023-02-18T19:25:41;15.70;99.90
1259;DHT22;619;51.472;6.628;2023-02-18T19:28:07;15.70;99.90
1259;DHT22;619;51.472;6.628;2023-02-18T19:30:37;15.60;99.90
1259;DHT22;619;51.472;6.628;2023-02-18T19:33:04;15.70;99.90
1259;DHT22;619;51.472;6.628;2023-02-18T19:35:31;15.70;99.90
1259;DHT22;619;51.472;6.628;2023-02-18T19:37:57;15.60;99.90
1259;DHT22;619;51.472;6.628;2023-02-18T19:40:26;15.60;99.90
1259;DHT22;619;51.472;6.628;2023-02-18T19:42:55;15.70;99.90
1259;DHT22;619;51.472;6.628;2023-02-18T19:45:21;15.70;99.90
1259;DHT22;619;51.472;6.628;2023-02-18T19:47:58;15.70;99.90
1259;DHT22;619;51.472;6.628;2023-02-18T19:50:26;15.70;99.90
